Visitor — CQBK — position and weather

sailwx.info

Track history (hours):
 
Tides and Currents Weather Stations Pressure Air Temp Water Temp Dewpoint Dewpoint Depression Visibility Wind Speed Wind Dir Waves Ship Positions

Visitor

Last reported at 2018-Jan-20 19:54 UTC. Time now 2018-Jan-20 21:04 UTC.
Position N 40°50' E 014°17'.

Length 135 m; draft 8.2 m.

Type: Ship (hazmat cat D). MMSI: 255805839.

Date/timePositionNaut miles runAvg speedWind from/ knotsBaromVisibWave heightAir tempDewpointWater temp
2018-Jan-20 19:54N 40°50' E 014°17'0 0.0
2018-Jan-20 19:30N 40°50' E 014°17'0 0.0
2018-Jan-20 18:57N 40°50' E 014°17'0 0.0
2018-Jan-20 18:27N 40°50' E 014°17'0 0.0
2018-Jan-20 17:03N 40°50' E 014°17'0 0.0
2018-Jan-20 16:57N 40°50' E 014°17'0 0.0
2018-Jan-20 16:20N 40°50' E 014°17'0 0.0
2018-Jan-20 16:00N 40°50' E 014°17'0 0.0
2018-Jan-20 15:30N 40°50' E 014°17'0 0.0
2018-Jan-20 15:00N 40°50' E 014°17'0 0.0
2018-Jan-20 14:30N 40°50' E 014°17'0 0.0
2018-Jan-20 14:00N 40°50' E 014°17'0 0.0
2018-Jan-20 13:30N 40°50' E 014°17'0 0.0
2018-Jan-20 12:59N 40°50' E 014°17'0 0.0
2018-Jan-20 12:29N 40°50' E 014°17'0 0.0
2018-Jan-20 12:00N 40°50' E 014°17'0 0.0
2018-Jan-20 11:30N 40°50' E 014°17'0 0.0
2018-Jan-20 11:01N 40°50' E 014°17'0 0.0
2018-Jan-20 10:30N 40°50' E 014°17'0 0.0
2018-Jan-20 09:59N 40°50' E 014°17'0 0.0
2018-Jan-20 09:30N 40°50' E 014°17'1 1.3
2018-Jan-20 08:59N 40°50' E 014°17'5 9.5
2018-Jan-20 08:30N 40°45' E 014°16'815.2
2018-Jan-20 08:00N 40°39' E 014°11'7915.1
2018-Jan-20 02:45N 39°27' E 014°55'415.9
2018-Jan-20 02:29N 39°23' E 014°57'3415.7
2018-Jan-20 00:19N 38°53' E 015°18'515.8
2018-Jan-19 23:58N 38°48' E 015°22'715.9
2018-Jan-19 23:30N 38°42' E 015°26'815.6
2018-Jan-19 23:00N 38°35' E 015°31'816.1
2018-Jan-19 22:30N 38°28' E 015°36'915.7
2018-Jan-19 21:54N 38°19' E 015°41'512.0
2018-Jan-19 21:29N 38°15' E 015°38'613.0
2018-Jan-19 21:00N 38°09' E 015°36'2614.8
2018-Jan-19 19:14N 37°45' E 015°23'415.8
2018-Jan-19 19:00N 37°42' E 015°21'101 7.0
2018-Jan-19 04:25N 36°04' E 014°45'613.8
2018-Jan-19 04:00N 35°59' E 014°42'713.7
2018-Jan-19 03:30N 35°53' E 014°37'712.9
2018-Jan-19 02:59N 35°47' E 014°36'4 7.4
2018-Jan-19 02:29N 35°49' E 014°32'  
2018-Jan-12 05:52N 38°13' E 012°31'512.6
2018-Jan-12 05:29N 38°17' E 012°35'612.2
2018-Jan-12 05:00N 38°21' E 012°39'611.7
2018-Jan-12 04:30N 38°26' E 012°44'161 5.0
2018-Jan-10 20:22N 40°50' E 014°17'0 0.0
2018-Jan-10 19:58N 40°50' E 014°17'  
Track history (hours):
 
Tides and Currents Weather Stations Pressure Air Temp Water Temp Dewpoint Dewpoint Depression Visibility Wind Speed Wind Dir Waves Ship Positions

Visitor

Last reported at 2018-Jan-20 19:54 UTC. Time now 2018-Jan-20 21:04 UTC.
Position N 40°50' E 014°17'.

Length 135 m; draft 8.2 m.

Type: Ship (hazmat cat D). MMSI: 255805839.

Date/timePositionNaut miles runAvg speedWind from/ knotsBaromVisibWave heightAir tempDewpointWater temp
2018-Jan-20 19:54N 40°50' E 014°17'0 0.0
2018-Jan-20 19:30N 40°50' E 014°17'0 0.0
2018-Jan-20 18:57N 40°50' E 014°17'0 0.0
2018-Jan-20 18:27N 40°50' E 014°17'0 0.0
2018-Jan-20 17:03N 40°50' E 014°17'0 0.0
2018-Jan-20 16:57N 40°50' E 014°17'0 0.0
2018-Jan-20 16:20N 40°50' E 014°17'0 0.0
2018-Jan-20 16:00N 40°50' E 014°17'0 0.0
2018-Jan-20 15:30N 40°50' E 014°17'0 0.0
2018-Jan-20 15:00N 40°50' E 014°17'0 0.0
2018-Jan-20 14:30N 40°50' E 014°17'0 0.0
2018-Jan-20 14:00N 40°50' E 014°17'0 0.0
2018-Jan-20 13:30N 40°50' E 014°17'0 0.0
2018-Jan-20 12:59N 40°50' E 014°17'0 0.0
2018-Jan-20 12:29N 40°50' E 014°17'0 0.0
2018-Jan-20 12:00N 40°50' E 014°17'0 0.0
2018-Jan-20 11:30N 40°50' E 014°17'0 0.0
2018-Jan-20 11:01N 40°50' E 014°17'0 0.0
2018-Jan-20 10:30N 40°50' E 014°17'0 0.0
2018-Jan-20 09:59N 40°50' E 014°17'0 0.0
2018-Jan-20 09:30N 40°50' E 014°17'1 1.3
2018-Jan-20 08:59N 40°50' E 014°17'5 9.5
2018-Jan-20 08:30N 40°45' E 014°16'815.2
2018-Jan-20 08:00N 40°39' E 014°11'7915.1
2018-Jan-20 02:45N 39°27' E 014°55'415.9
2018-Jan-20 02:29N 39°23' E 014°57'3415.7
2018-Jan-20 00:19N 38°53' E 015°18'515.8
2018-Jan-19 23:58N 38°48' E 015°22'715.9
2018-Jan-19 23:30N 38°42' E 015°26'815.6
2018-Jan-19 23:00N 38°35' E 015°31'816.1
2018-Jan-19 22:30N 38°28' E 015°36'915.7
2018-Jan-19 21:54N 38°19' E 015°41'512.0
2018-Jan-19 21:29N 38°15' E 015°38'613.0
2018-Jan-19 21:00N 38°09' E 015°36'2614.8
2018-Jan-19 19:14N 37°45' E 015°23'415.8
2018-Jan-19 19:00N 37°42' E 015°21'101 7.0
2018-Jan-19 04:25N 36°04' E 014°45'613.8
2018-Jan-19 04:00N 35°59' E 014°42'713.7
2018-Jan-19 03:30N 35°53' E 014°37'712.9
2018-Jan-19 02:59N 35°47' E 014°36'4 7.4
2018-Jan-19 02:29N 35°49' E 014°32'  
2018-Jan-12 05:52N 38°13' E 012°31'512.6
2018-Jan-12 05:29N 38°17' E 012°35'612.2
2018-Jan-12 05:00N 38°21' E 012°39'611.7
2018-Jan-12 04:30N 38°26' E 012°44'161 5.0
2018-Jan-10 20:22N 40°50' E 014°17'0 0.0
2018-Jan-10 19:58N 40°50' E 014°17'  

Dump ship's entire track history